Pagrindinis puslapis
METAR-TAF:

METAR-TAF

Oro uostai :

Antakija, Turkija

platuma: 36-21-46N, ilguma: 36-16-56E, Aukštis: 1950 m

Dabartinis oras

Ataskaita buvo paskelbta 43 minutes, ne 08:50 UTC
Vėjas 19 kt iš Pietvakarių
Temperatūra 27°C
Drėgmė 45%
Slėgis 1011 hPa
Matomumas 10 km arba daugiau
nėra debesų žemiau 1500 m ir nėra kamuolinių lietaus debesų

METAR: LTDA 130850Z 22019KT CAVOK 27/14 Q1011 NOSIG

Laikas: 12:33 (09:33 UTC)

Prognozė

Ataskaita buvo paskelbta 36 minutes, ne 08:57 UTC
Prognozė galioja nuo 13 metu 09 UTC su 13 metu 18 UTC
Vėjas 19 kt iš Vakarų/Pietvakarių
Matomumas 10 km arba daugiau
Mažai debesys ne aukštis 4000 ft
Išsisklaidę debesys ne aukštis 18000 ft

TAF: LTDA 130857Z 1309/1318 24019KT 9999 FEW040 SCT180

Orai ataskaitas ir orų prognozės (METAR, TAF).

turimą stotys yra geltonos ir raudonos taškus žemėlapyje.

Perkelti pele per norėdami pamatyti stoties vardą.

Tada spustelėkite, norėdami matyti oro stebėjimo ir prognozės.

Norėdami pakeisti žemėlapį: spustelėkite ant žalios mygtukų su juodo kryžiaus žemyn,; žalią mygtuką su brūkšneliu, jei norite nutolinti; arba žalių rodyklių gretimoms žemėlapius.


METAR-TAF: